Time;durP1;ratioP1;P1;durP2;ratioP2;P2;SDS_P1;SDS_P2;PMS_P1;PMS_P2;Temp;Humidity;BMP_temperature;BMP_pressure;BME280_temperature;BME280_humidity;BME280_pressure;Samples;Min_cycle;Max_cycle;Signal;HPM_P1;HPM_P2
2024/02/24 00:00:47;;;;;;;1.17;1.07;;;7.50;99.90;;;;;;5052931;28;20517;-56
2024/02/24 00:03:14;;;;;;;1.13;0.90;;;7.50;99.90;;;;;;5053072;28;20445;-56
2024/02/24 00:05:41;;;;;;;1.27;0.90;;;7.50;99.90;;;;;;5052901;28;20488;-56
2024/02/24 00:08:08;;;;;;;1.53;1.10;;;7.50;99.90;;;;;;5052946;28;20449;-56
2024/02/24 00:10:36;;;;;;;1.53;1.20;;;7.50;99.90;;;;;;5052782;28;20465;-56
2024/02/24 00:13:03;;;;;;;1.80;1.20;;;7.50;99.90;;;;;;5054715;28;20448;-56
2024/02/24 00:15:30;;;;;;;1.67;1.20;;;7.60;99.90;;;;;;5056393;28;20448;-56
2024/02/24 00:17:57;;;;;;;1.30;1.20;;;7.60;99.90;;;;;;5056220;28;20452;-56
2024/02/24 00:20:24;;;;;;;1.47;1.27;;;7.60;99.90;;;;;;5056061;28;20480;-56
2024/02/24 00:22:50;;;;;;;1.10;1.10;;;7.60;99.90;;;;;;5056414;28;20452;-56
2024/02/24 00:25:17;;;;;;;2.50;1.50;;;7.60;99.90;;;;;;5055810;28;20452;-56
2024/02/24 00:27:45;;;;;;;1.37;1.27;;;7.50;99.90;;;;;;5056160;28;20456;-56
2024/02/24 00:30:13;;;;;;;1.27;1.27;;;7.60;99.90;;;;;;5056163;28;20543;-56
2024/02/24 00:32:40;;;;;;;1.93;1.37;;;7.50;99.90;;;;;;5056087;28;20495;-56
2024/02/24 00:35:07;;;;;;;1.60;1.50;;;7.50;99.90;;;;;;5055978;28;20449;-56
2024/02/24 00:37:34;;;;;;;4.73;1.43;;;7.50;99.90;;;;;;5056524;28;20866;-56
2024/02/24 00:40:01;;;;;;;2.20;1.63;;;7.40;99.90;;;;;;5055902;28;20450;-56
2024/02/24 00:42:28;;;;;;;1.80;1.70;;;7.40;99.90;;;;;;5055938;28;20826;-56
2024/02/24 00:44:56;;;;;;;2.90;1.27;;;7.40;99.90;;;;;;5055599;28;20453;-56
2024/02/24 00:47:23;;;;;;;1.40;1.30;;;7.40;99.90;;;;;;5055650;28;20489;-56
2024/02/24 00:49:49;;;;;;;3.07;1.00;;;7.40;99.90;;;;;;5055842;28;20442;-56
2024/02/24 00:52:16;;;;;;;1.33;1.17;;;7.40;99.90;;;;;;5055490;28;21044;-56
2024/02/24 00:54:43;;;;;;;1.40;1.10;;;7.40;99.90;;;;;;5054820;28;20459;-56
2024/02/24 00:57:10;;;;;;;1.20;1.10;;;7.40;99.90;;;;;;5054907;28;20529;-56
2024/02/24 00:59:37;;;;;;;2.40;1.50;;;7.40;99.90;;;;;;5055450;28;20445;-56
2024/02/24 01:02:05;;;;;;;1.20;1.10;;;7.40;99.90;;;;;;5055047;28;21008;-56
2024/02/24 01:04:32;;;;;;;1.90;1.57;;;7.30;99.90;;;;;;5055370;28;20445;-56
2024/02/24 01:07:00;;;;;;;2.00;1.23;;;7.30;99.90;;;;;;5055201;28;20481;-56
2024/02/24 01:09:27;;;;;;;1.33;1.00;;;7.30;99.90;;;;;;5055326;28;20445;-56
2024/02/24 01:11:54;;;;;;;3.03;1.40;;;7.20;99.90;;;;;;5055209;28;20462;-56
2024/02/24 01:14:21;;;;;;;1.83;1.10;;;7.20;99.90;;;;;;5055230;28;20446;-56
2024/02/24 01:16:47;;;;;;;4.23;1.13;;;7.20;99.90;;;;;;5054864;28;20445;-56
2024/02/24 01:19:16;;;;;;;1.17;0.90;;;7.20;99.90;;;;;;5054778;28;20814;-56
2024/02/24 01:21:43;;;;;;;2.50;0.93;;;7.20;99.90;;;;;;5055077;28;20461;-56
2024/02/24 01:24:10;;;;;;;1.53;0.90;;;7.10;99.90;;;;;;5054171;28;20448;-57
2024/02/24 01:26:37;;;;;;;1.03;0.80;;;7.10;99.90;;;;;;5074839;28;20476;-56
2024/02/24 01:29:03;;;;;;;1.00;0.80;;;7.20;99.90;;;;;;5075054;28;20516;-56
2024/02/24 01:31:30;;;;;;;1.20;1.00;;;7.10;99.90;;;;;;5074881;28;20465;-56
2024/02/24 01:33:57;;;;;;;1.10;1.00;;;7.10;99.90;;;;;;5075083;28;20489;-56
2024/02/24 01:36:26;;;;;;;1.23;1.13;;;7.20;99.90;;;;;;5075436;28;20440;-56
2024/02/24 01:38:54;;;;;;;2.50;1.10;;;7.20;99.90;;;;;;5074785;28;20441;-56
2024/02/24 01:41:21;;;;;;;1.27;1.03;;;7.20;99.90;;;;;;5074564;28;20567;-56
2024/02/24 01:43:47;;;;;;;2.10;1.27;;;7.20;99.90;;;;;;5074597;28;20445;-56
2024/02/24 01:46:16;;;;;;;0.90;0.87;;;7.20;99.90;;;;;;5074308;28;20480;-56
2024/02/24 01:48:42;;;;;;;1.30;0.80;;;7.20;99.90;;;;;;5074611;28;20444;-56
2024/02/24 01:51:10;;;;;;;0.87;0.87;;;7.20;99.90;;;;;;5074365;28;20465;-56
2024/02/24 01:53:38;;;;;;;0.90;0.80;;;7.20;99.90;;;;;;5074252;28;20452;-56
2024/02/24 01:56:08;;;;;;;0.87;0.87;;;7.20;99.90;;;;;;5074216;28;20441;-56
2024/02/24 01:58:37;;;;;;;6.50;0.90;;;7.30;99.90;;;;;;5074648;28;20529;-56
2024/02/24 02:01:04;;;;;;;1.00;1.00;;;7.30;99.90;;;;;;5074482;28;20465;-56
2024/02/24 02:03:31;;;;;;;1.13;1.03;;;7.40;99.90;;;;;;5074211;28;20447;-56
2024/02/24 02:05:58;;;;;;;1.37;1.10;;;7.40;99.90;;;;;;5073891;28;20861;-56
2024/02/24 02:08:24;;;;;;;0.80;0.80;;;7.30;99.90;;;;;;5074264;28;20821;-56
2024/02/24 02:10:55;;;;;;;1.10;1.00;;;7.40;99.90;;;;;;5074636;28;20471;-56
2024/02/24 02:13:22;;;;;;;1.77;0.90;;;7.40;99.90;;;;;;5073850;28;20465;-56
2024/02/24 02:15:51;;;;;;;1.20;1.10;;;7.30;99.90;;;;;;5073999;28;20445;-56
2024/02/24 02:18:18;;;;;;;2.90;1.23;;;7.30;99.90;;;;;;5074001;28;20447;-56
2024/02/24 02:20:46;;;;;;;1.43;1.03;;;7.30;99.90;;;;;;5073868;28;20468;-56
2024/02/24 02:23:14;;;;;;;0.80;0.77;;;7.40;99.90;;;;;;5073982;28;20482;-56
2024/02/24 02:25:41;;;;;;;1.20;1.10;;;7.40;99.90;;;;;;5073936;28;20799;-56
2024/02/24 02:28:08;;;;;;;4.27;1.30;;;7.30;99.90;;;;;;5074157;28;20575;-56
2024/02/24 02:30:35;;;;;;;2.73;1.70;;;7.30;99.90;;;;;;5074263;28;20468;-56
2024/02/24 02:33:02;;;;;;;3.07;1.20;;;7.20;99.90;;;;;;5074230;28;20449;-56
2024/02/24 02:35:28;;;;;;;3.23;1.00;;;7.30;99.90;;;;;;5073281;28;20830;-56
2024/02/24 02:37:55;;;;;;;1.60;1.30;;;7.30;99.90;;;;;;5073546;28;20436;-56
2024/02/24 02:40:23;;;;;;;2.20;1.40;;;7.30;99.90;;;;;;5073841;28;20469;-56
2024/02/24 02:42:50;;;;;;;0.90;0.90;;;7.20;99.90;;;;;;5073597;28;20441;-56
2024/02/24 02:45:17;;;;;;;2.33;1.40;;;7.20;99.90;;;;;;5073669;28;20449;-56
2024/02/24 02:47:44;;;;;;;1.67;1.40;;;7.20;99.90;;;;;;5073335;28;21014;-56
2024/02/24 02:50:10;;;;;;;3.43;3.17;;;7.20;99.90;;;;;;5073541;28;20440;-56
2024/02/24 02:52:38;;;;;;;1.40;1.20;;;7.10;99.90;;;;;;5073552;28;20440;-56
2024/02/24 02:55:05;;;;;;;1.60;0.90;;;7.10;99.90;;;;;;5073244;28;20452;-56
2024/02/24 02:57:34;;;;;;;2.20;1.17;;;7.20;99.90;;;;;;5073411;28;20451;-56
2024/02/24 03:00:00;;;;;;;2.50;0.90;;;7.10;99.90;;;;;;5073084;28;20443;-56
2024/02/24 03:02:27;;;;;;;2.43;0.90;;;7.10;99.90;;;;;;5073259;28;20441;-56
2024/02/24 03:04:54;;;;;;;1.83;0.83;;;7.20;99.90;;;;;;5073206;28;20448;-56
2024/02/24 03:07:21;;;;;;;1.63;1.00;;;7.20;99.90;;;;;;5073438;28;20579;-56
2024/02/24 03:09:48;;;;;;;2.23;1.13;;;7.20;99.90;;;;;;5073500;28;20440;-56
2024/02/24 03:12:15;;;;;;;2.30;1.07;;;7.20;99.90;;;;;;5072930;28;20465;-56
2024/02/24 03:14:44;;;;;;;2.37;1.00;;;7.20;99.90;;;;;;5073284;28;20448;-56
2024/02/24 03:17:11;;;;;;;1.27;0.90;;;7.20;99.90;;;;;;5073200;28;20448;-56
2024/02/24 03:19:39;;;;;;;1.97;0.90;;;7.20;99.90;;;;;;5073303;28;20536;-56
2024/02/24 03:22:06;;;;;;;0.90;0.80;;;7.20;99.90;;;;;;5073137;28;20470;-56
2024/02/24 03:24:33;;;;;;;2.10;0.90;;;7.20;99.90;;;;;;5072850;28;20445;-56
2024/02/24 03:27:00;;;;;;;2.60;0.93;;;7.30;99.90;;;;;;5073079;28;20567;-56
2024/02/24 03:29:26;;;;;;;1.63;0.80;;;7.30;99.90;;;;;;5072820;28;20451;-56
2024/02/24 03:31:55;;;;;;;1.00;1.00;;;7.30;99.90;;;;;;5072672;28;20851;-56
2024/02/24 03:34:21;;;;;;;3.97;1.10;;;7.20;99.90;;;;;;5073536;28;20444;-56
2024/02/24 03:36:48;;;;;;;0.97;0.90;;;7.30;99.90;;;;;;5073047;28;20446;-56
2024/02/24 03:39:18;;;;;;;1.57;0.80;;;7.30;99.90;;;;;;5072696;28;20830;-56
2024/02/24 03:41:45;;;;;;;1.60;0.90;;;7.30;99.90;;;;;;5072940;28;20468;-56
2024/02/24 03:44:12;;;;;;;1.10;0.97;;;7.30;99.90;;;;;;5072939;28;20819;-56
2024/02/24 03:46:39;;;;;;;0.90;0.73;;;7.20;99.90;;;;;;5072841;28;20480;-56
2024/02/24 03:49:07;;;;;;;1.23;0.87;;;7.10;99.90;;;;;;5076698;28;20523;-56
2024/02/24 03:51:34;;;;;;;1.20;1.10;;;7.20;99.90;;;;;;5076754;28;20460;-56
2024/02/24 03:54:01;;;;;;;1.20;0.80;;;7.20;99.90;;;;;;5076846;28;20459;-56
2024/02/24 03:56:28;;;;;;;1.07;0.80;;;7.20;99.90;;;;;;5076738;28;20454;-56
2024/02/24 03:58:55;;;;;;;2.23;0.97;;;7.20;99.90;;;;;;5076746;28;20519;-56
2024/02/24 04:01:22;;;;;;;0.83;0.63;;;7.10;99.90;;;;;;5076659;28;20837;-56
2024/02/24 04:03:49;;;;;;;1.00;0.80;;;7.10;99.90;;;;;;5076613;28;20441;-56
2024/02/24 04:06:18;;;;;;;0.80;0.80;;;7.20;99.90;;;;;;5076595;28;20447;-56
2024/02/24 04:08:45;;;;;;;3.70;1.00;;;7.20;99.90;;;;;;5076080;28;20452;-56
2024/02/24 04:11:12;;;;;;;1.80;1.03;;;7.20;99.90;;;;;;5076105;28;20984;-56
2024/02/24 04:13:39;;;;;;;0.83;0.83;;;7.20;99.90;;;;;;5076470;28;20527;-56
2024/02/24 04:16:06;;;;;;;0.80;0.60;;;7.10;99.90;;;;;;5076344;28;20474;-56
2024/02/24 04:18:33;;;;;;;1.07;0.60;;;7.10;99.90;;;;;;5076371;28;20442;-56
2024/02/24 04:20:59;;;;;;;1.30;0.90;;;7.10;99.90;;;;;;5075954;28;20456;-56
2024/02/24 04:23:28;;;;;;;2.70;1.07;;;7.10;99.90;;;;;;5076043;28;20943;-56
2024/02/24 04:25:54;;;;;;;0.90;0.70;;;7.10;99.90;;;;;;5074913;28;20475;-56
2024/02/24 04:28:22;;;;;;;1.73;0.77;;;7.10;99.90;;;;;;5076028;28;20484;-56
2024/02/24 04:30:48;;;;;;;3.27;0.80;;;7.00;99.90;;;;;;5075986;28;20460;-56
2024/02/24 04:33:16;;;;;;;0.83;0.83;;;7.10;99.90;;;;;;5076082;28;20459;-56
2024/02/24 04:35:43;;;;;;;1.30;0.83;;;7.10;99.90;;;;;;5076068;28;20459;-56
2024/02/24 04:38:10;;;;;;;2.20;0.90;;;7.10;99.90;;;;;;5075847;28;20444;-56
2024/02/24 04:40:38;;;;;;;0.97;0.80;;;7.20;99.90;;;;;;5075516;28;20470;-56
2024/02/24 04:43:05;;;;;;;2.40;1.03;;;7.20;99.90;;;;;;5075707;28;20452;-56
2024/02/24 04:45:32;;;;;;;1.03;0.90;;;7.20;99.90;;;;;;5075490;28;20440;-56
2024/02/24 04:47:59;;;;;;;2.00;1.00;;;7.20;99.90;;;;;;5075697;28;20480;-56
2024/02/24 04:50:25;;;;;;;1.07;0.83;;;7.10;99.90;;;;;;5075618;28;20465;-56
2024/02/24 04:52:53;;;;;;;1.33;1.00;;;7.10;99.90;;;;;;5075774;28;20453;-56
2024/02/24 04:55:19;;;;;;;1.10;1.00;;;7.10;99.90;;;;;;5075265;28;20476;-56
2024/02/24 04:57:47;;;;;;;2.00;0.97;;;7.00;99.90;;;;;;5075638;28;20432;-56
2024/02/24 05:00:17;;;;;;;0.80;0.70;;;6.90;99.90;;;;;;5074227;28;20505;-56
2024/02/24 05:02:43;;;;;;;0.80;0.80;;;7.00;99.90;;;;;;5075609;28;20531;-56
2024/02/24 05:05:12;;;;;;;1.37;1.00;;;6.90;99.90;;;;;;5075631;28;20451;-56
2024/02/24 05:07:38;;;;;;;1.53;0.90;;;6.90;99.90;;;;;;5075002;28;20990;-56
2024/02/24 05:10:06;;;;;;;0.60;0.60;;;6.90;99.90;;;;;;5075004;28;20977;-56
2024/02/24 05:12:33;;;;;;;1.37;0.80;;;6.80;99.90;;;;;;5075466;28;20536;-56
2024/02/24 05:15:01;;;;;;;0.80;0.70;;;6.80;99.90;;;;;;5075358;28;20542;-56
2024/02/24 05:17:28;;;;;;;1.27;0.60;;;6.80;99.90;;;;;;5075243;28;20448;-56
2024/02/24 05:19:55;;;;;;;1.13;0.77;;;6.80;99.90;;;;;;5075193;28;20440;-56
2024/02/24 05:22:22;;;;;;;0.73;0.73;;;6.80;99.90;;;;;;5075233;28;20888;-56
2024/02/24 05:24:49;;;;;;;1.03;0.93;;;6.70;99.90;;;;;;5075151;28;20436;-56
2024/02/24 05:27:15;;;;;;;1.37;0.77;;;6.70;99.90;;;;;;5074997;28;20491;-56
2024/02/24 05:29:46;;;;;;;0.83;0.67;;;6.80;99.90;;;;;;5075008;28;20448;-56
2024/02/24 05:32:16;;;;;;;1.33;1.03;;;6.80;99.90;;;;;;5074977;28;20811;-56
2024/02/24 05:34:43;;;;;;;0.80;0.80;;;6.80;99.90;;;;;;5075109;28;20532;-56
2024/02/24 05:37:09;;;;;;;1.77;1.20;;;6.80;99.90;;;;;;5074542;28;20965;-56
2024/02/24 05:39:36;;;;;;;1.00;0.83;;;6.80;99.90;;;;;;5074968;28;20474;-56
2024/02/24 05:42:04;;;;;;;1.00;0.73;;;6.90;99.90;;;;;;5075245;28;20468;-56
2024/02/24 05:44:30;;;;;;;1.23;0.83;;;6.90;99.90;;;;;;5075243;28;20950;-56
2024/02/24 05:46:57;;;;;;;1.03;0.90;;;6.90;99.90;;;;;;5075230;28;20447;-56
2024/02/24 05:49:25;;;;;;;1.33;1.20;;;6.90;99.90;;;;;;5075048;28;20449;-56
2024/02/24 05:51:53;;;;;;;1.30;1.20;;;6.90;99.90;;;;;;5074549;28;20468;-56
2024/02/24 05:54:20;;;;;;;1.33;1.10;;;7.00;99.90;;;;;;5074364;28;20464;-56
2024/02/24 05:56:46;;;;;;;0.80;0.80;;;7.00;99.90;;;;;;5074518;28;20451;-56
2024/02/24 05:59:13;;;;;;;1.13;1.03;;;7.00;99.90;;;;;;5074691;28;20433;-56
2024/02/24 06:01:40;;;;;;;1.63;1.10;;;7.00;99.90;;;;;;5074484;28;20468;-56
2024/02/24 06:04:07;;;;;;;0.70;0.70;;;7.00;99.90;;;;;;5074625;28;20455;-56
2024/02/24 06:06:35;;;;;;;1.00;0.70;;;7.00;99.90;;;;;;5074544;28;20448;-56
2024/02/24 06:09:02;;;;;;;0.83;0.83;;;7.00;99.90;;;;;;5074403;28;20483;-56
2024/02/24 06:11:29;;;;;;;1.33;0.87;;;7.10;99.90;;;;;;5074187;28;20468;-56
2024/02/24 06:13:55;;;;;;;0.97;0.90;;;7.10;99.90;;;;;;5074746;28;20447;-56
2024/02/24 06:16:22;;;;;;;1.00;0.90;;;7.10;99.90;;;;;;5074820;28;20445;-56
2024/02/24 06:18:49;;;;;;;1.97;1.57;;;7.10;99.90;;;;;;5074443;28;20441;-56
2024/02/24 06:21:16;;;;;;;0.80;0.80;;;7.10;99.90;;;;;;5074183;28;20464;-56
2024/02/24 06:23:44;;;;;;;1.37;1.10;;;7.10;99.90;;;;;;5074416;28;20441;-56
2024/02/24 06:26:11;;;;;;;1.03;0.83;;;7.10;99.90;;;;;;5074039;28;20448;-56
2024/02/24 06:28:38;;;;;;;2.27;1.20;;;7.10;99.90;;;;;;5073665;28;20479;-56
2024/02/24 06:31:05;;;;;;;1.73;1.30;;;7.20;99.90;;;;;;5073715;28;20563;-56
2024/02/24 06:33:32;;;;;;;1.37;1.27;;;7.10;99.90;;;;;;5073966;28;20441;-56
2024/02/24 06:35:59;;;;;;;1.00;1.00;;;7.20;99.90;;;;;;5073689;28;20935;-56
2024/02/24 06:38:26;;;;;;;1.23;1.20;;;7.10;99.90;;;;;;5074252;28;20437;-56
2024/02/24 06:40:54;;;;;;;0.87;0.80;;;7.20;99.90;;;;;;5074631;28;20469;-56
2024/02/24 06:43:21;;;;;;;1.07;0.97;;;7.20;99.90;;;;;;5073977;28;20441;-56
2024/02/24 06:45:47;;;;;;;1.47;1.37;;;7.30;99.90;;;;;;5073837;28;20455;-56
2024/02/24 06:48:14;;;;;;;1.40;1.00;;;7.30;99.90;;;;;;5073774;28;20481;-56
2024/02/24 06:50:41;;;;;;;2.17;1.37;;;7.40;99.90;;;;;;5073512;28;20464;-56
2024/02/24 06:53:08;;;;;;;2.20;1.20;;;7.40;99.90;;;;;;5073722;28;20444;-56
2024/02/24 06:55:35;;;;;;;2.23;1.27;;;7.40;99.90;;;;;;5073897;28;20430;-56
2024/02/24 06:58:03;;;;;;;1.83;1.10;;;7.50;99.90;;;;;;5074061;28;20433;-56
2024/02/24 07:00:30;;;;;;;4.53;2.13;;;7.50;99.90;;;;;;5074143;28;20457;-56
2024/02/24 07:02:57;;;;;;;4.00;1.73;;;7.50;99.90;;;;;;5074312;28;20471;-56
2024/02/24 07:05:25;;;;;;;2.77;2.00;;;7.50;99.90;;;;;;5074554;28;20440;-57
2024/02/24 07:07:52;;;;;;;2.07;1.43;;;7.50;99.90;;;;;;5076208;28;20929;-56
2024/02/24 07:10:19;;;;;;;1.83;1.30;;;7.50;99.90;;;;;;5077662;28;20448;-57
2024/02/24 07:12:46;;;;;;;1.83;1.30;;;7.50;99.90;;;;;;5076419;28;20445;-56
2024/02/24 07:15:14;;;;;;;1.60;1.50;;;7.50;99.90;;;;;;5075928;28;20447;-56
2024/02/24 07:17:41;;;;;;;2.43;1.60;;;7.50;99.90;;;;;;5075495;28;20504;-56
2024/02/24 07:20:09;;;;;;;1.83;1.30;;;7.50;99.90;;;;;;5074868;28;20433;-57
2024/02/24 07:22:36;;;;;;;2.73;1.27;;;7.50;99.90;;;;;;5074416;28;20456;-56
2024/02/24 07:25:03;;;;;;;1.47;1.33;;;7.60;99.90;;;;;;5073713;28;20449;-57
2024/02/24 07:27:33;;;;;;;1.43;1.13;;;7.50;99.90;;;;;;5073237;28;20447;-57
2024/02/24 07:30:00;;;;;;;1.63;1.30;;;7.50;99.90;;;;;;5073318;28;20812;-57
2024/02/24 07:32:28;;;;;;;1.60;1.20;;;7.50;99.90;;;;;;5073155;28;20464;-57
2024/02/24 07:34:55;;;;;;;1.33;1.20;;;7.50;99.90;;;;;;5073039;28;20962;-57
2024/02/24 07:37:22;;;;;;;1.17;0.93;;;7.50;99.90;;;;;;5073091;28;20445;-57
2024/02/24 07:39:49;;;;;;;2.10;1.20;;;7.50;99.90;;;;;;5073102;28;20923;-57
2024/02/24 07:42:16;;;;;;;3.37;1.40;;;7.50;99.90;;;;;;5072769;28;20465;-57
2024/02/24 07:44:43;;;;;;;3.97;1.10;;;7.50;99.90;;;;;;5073095;28;20436;-57
2024/02/24 07:47:10;;;;;;;2.90;1.00;;;7.50;99.90;;;;;;5072971;28;20444;-57
2024/02/24 07:49:38;;;;;;;1.93;1.10;;;7.60;99.90;;;;;;5072719;28;20491;-57
2024/02/24 07:52:06;;;;;;;2.57;1.23;;;7.50;99.90;;;;;;5072466;28;20460;-57
2024/02/24 07:54:33;;;;;;;1.50;1.20;;;7.60;99.90;;;;;;5072703;28;20468;-57
2024/02/24 07:57:00;;;;;;;1.23;0.90;;;7.50;99.90;;;;;;5072946;28;20455;-57
2024/02/24 07:59:26;;;;;;;1.37;0.97;;;7.50;99.90;;;;;;5072732;28;20439;-57
2024/02/24 08:01:53;;;;;;;2.00;1.23;;;7.50;99.90;;;;;;5072947;28;20460;-57
2024/02/24 08:04:20;;;;;;;2.00;1.20;;;7.50;99.90;;;;;;5072739;28;20552;-57
2024/02/24 08:06:48;;;;;;;2.10;1.37;;;7.50;99.90;;;;;;5073237;28;20460;-56
2024/02/24 08:09:16;;;;;;;1.70;1.40;;;7.50;99.90;;;;;;5073056;28;20821;-57
2024/02/24 08:11:42;;;;;;;2.73;1.00;;;7.50;99.90;;;;;;5072501;28;20493;-57
2024/02/24 08:14:10;;;;;;;2.20;1.23;;;7.50;99.90;;;;;;5073015;28;20838;-57
2024/02/24 08:16:38;;;;;;;0.73;0.73;;;7.50;99.90;;;;;;5072799;28;20445;-57
2024/02/24 08:19:05;;;;;;;1.57;0.90;;;7.50;99.90;;;;;;5072381;28;20861;-57
2024/02/24 08:21:36;;;;;;;1.47;0.73;;;7.50;99.90;;;;;;5072712;28;20500;-57
2024/02/24 08:24:07;;;;;;;1.80;0.80;;;7.50;99.90;;;;;;5072703;28;20433;-57
2024/02/24 08:26:34;;;;;;;3.50;0.90;;;7.50;99.90;;;;;;5072636;28;20435;-57
2024/02/24 08:29:01;;;;;;;1.17;0.80;;;7.60;99.90;;;;;;5072221;28;20993;-57
2024/02/24 08:31:28;;;;;;;1.40;0.77;;;7.50;99.90;;;;;;5072166;28;20464;-57
2024/02/24 08:33:55;;;;;;;1.10;1.00;;;7.60;99.90;;;;;;5072764;28;20497;-57
2024/02/24 08:36:22;;;;;;;2.20;0.90;;;7.50;99.90;;;;;;5076114;28;20451;-57
2024/02/24 08:38:49;;;;;;;4.77;1.53;;;7.50;99.90;;;;;;5076059;28;20432;-56
2024/02/24 08:41:17;;;;;;;2.97;0.80;;;7.50;99.90;;;;;;5075618;28;20563;-56
2024/02/24 08:43:43;;;;;;;3.97;1.90;;;7.50;99.90;;;;;;5076057;28;20444;-56
2024/02/24 08:46:10;;;;;;;3.40;1.13;;;7.40;99.90;;;;;;5075936;28;20448;-57
2024/02/24 08:48:37;;;;;;;4.67;1.10;;;7.40;99.90;;;;;;5075454;28;20486;-57
2024/02/24 08:51:05;;;;;;;1.30;1.00;;;7.50;99.90;;;;;;5075491;28;20468;-57
2024/02/24 08:53:31;;;;;;;1.00;0.60;;;7.50;99.90;;;;;;5075963;28;20543;-57
2024/02/24 08:56:01;;;;;;;0.83;0.50;;;7.40;99.90;;;;;;5077139;28;20915;-57
2024/02/24 08:58:29;;;;;;;0.60;0.40;;;7.40;99.90;;;;;;5076582;28;20444;-56
2024/02/24 09:00:57;;;;;;;0.90;0.43;;;7.30;99.90;;;;;;5076025;28;20486;-57
2024/02/24 09:03:24;;;;;;;0.63;0.40;;;7.20;99.90;;;;;;5076048;28;20448;-56
2024/02/24 09:05:51;;;;;;;1.80;0.40;;;7.10;99.90;;;;;;5075799;28;20436;-56
2024/02/24 09:08:18;;;;;;;1.73;0.80;;;7.00;99.90;;;;;;5075477;28;20857;-57
2024/02/24 09:10:44;;;;;;;1.10;0.60;;;7.00;99.90;;;;;;5075172;28;20472;-57
2024/02/24 09:13:11;;;;;;;1.00;0.60;;;7.00;99.90;;;;;;5075463;28;20448;-56
2024/02/24 09:15:39;;;;;;;0.70;0.50;;;7.00;99.90;;;;;;5075365;28;20444;-57
2024/02/24 09:18:07;;;;;;;2.33;1.00;;;7.10;99.90;;;;;;5075588;28;20444;-57
2024/02/24 09:20:35;;;;;;;0.40;0.40;;;7.20;99.90;;;;;;5075349;28;20473;-57
2024/02/24 09:23:02;;;;;;;0.93;0.70;;;7.30;99.90;;;;;;5075361;28;20455;-56
2024/02/24 09:25:30;;;;;;;0.77;0.57;;;7.30;99.90;;;;;;5075110;28;20934;-56
2024/02/24 09:27:57;;;;;;;1.57;0.50;;;7.40;99.90;;;;;;5075001;28;20441;-56
2024/02/24 09:30:23;;;;;;;1.33;0.40;;;7.40;99.90;;;;;;5074819;28;20482;-56
2024/02/24 09:32:53;;;;;;;1.07;0.43;;;7.40;99.90;;;;;;5075476;28;20480;-56
2024/02/24 09:35:20;;;;;;;1.03;0.80;;;7.50;99.90;;;;;;5075438;28;20494;-56
2024/02/24 09:37:47;;;;;;;1.00;0.60;;;7.60;99.90;;;;;;5074946;28;20453;-56
2024/02/24 09:40:14;;;;;;;0.60;0.60;;;7.60;99.90;;;;;;5074957;28;20445;-56
2024/02/24 09:42:41;;;;;;;1.37;0.50;;;7.60;99.90;;;;;;5074934;28;20523;-56
2024/02/24 09:45:12;;;;;;;1.00;0.60;;;7.50;99.90;;;;;;5074185;28;20440;-56
2024/02/24 09:47:41;;;;;;;2.10;0.80;;;7.50;99.90;;;;;;5075244;28;20486;-56
2024/02/24 09:50:10;;;;;;;0.70;0.70;;;7.50;99.90;;;;;;5074930;28;20488;-56
2024/02/24 09:52:38;;;;;;;4.20;0.90;;;7.60;99.90;;;;;;5074734;28;20448;-56
2024/02/24 09:55:06;;;;;;;1.77;0.90;;;7.60;99.90;;;;;;5074234;28;20460;-56
2024/02/24 09:57:36;;;;;;;0.50;0.50;;;7.70;99.90;;;;;;5074556;28;20453;-56
2024/02/24 10:00:04;;;;;;;0.70;0.60;;;7.80;99.90;;;;;;5074540;28;20859;-56
2024/02/24 10:02:31;;;;;;;0.70;0.70;;;8.00;99.90;;;;;;5074352;28;20468;-56
2024/02/24 10:04:58;;;;;;;1.17;0.70;;;8.20;99.90;;;;;;5074410;28;20451;-56
2024/02/24 10:07:29;;;;;;;1.80;0.70;;;8.40;99.90;;;;;;5074318;28;20448;-56
2024/02/24 10:09:56;;;;;;;1.07;0.60;;;8.70;99.90;;;;;;5074264;28;20471;-56
2024/02/24 10:12:24;;;;;;;1.33;0.70;;;8.70;99.90;;;;;;5074066;28;20472;-56
2024/02/24 10:14:50;;;;;;;1.47;0.80;;;8.80;99.90;;;;;;5074127;28;20472;-56
2024/02/24 10:17:17;;;;;;;2.50;0.83;;;8.90;99.90;;;;;;5073943;28;20445;-56
2024/02/24 10:19:46;;;;;;;0.70;0.70;;;9.00;99.90;;;;;;5074208;28;20441;-56
2024/02/24 10:22:16;;;;;;;4.87;0.97;;;9.00;99.90;;;;;;5073734;28;20991;-56
2024/02/24 10:24:44;;;;;;;1.03;0.60;;;9.00;99.90;;;;;;5074073;28;20440;-56
2024/02/24 10:27:12;;;;;;;5.23;0.90;;;8.90;99.30;;;;;;5073976;28;20448;-56
2024/02/24 10:29:40;;;;;;;1.17;0.80;;;8.90;99.30;;;;;;5073514;28;20485;-56
2024/02/24 10:32:08;;;;;;;0.60;0.60;;;9.00;98.80;;;;;;5073763;28;20519;-56
2024/02/24 10:34:36;;;;;;;0.70;0.60;;;9.00;98.30;;;;;;5073763;28;20444;-56
2024/02/24 10:37:03;;;;;;;0.87;0.67;;;9.20;98.70;;;;;;5074312;28;20448;-56
2024/02/24 10:39:34;;;;;;;4.70;0.70;;;9.50;99.00;;;;;;5074670;28;20441;-56
2024/02/24 10:42:04;;;;;;;6.20;1.47;;;9.90;96.60;;;;;;5073572;28;20464;-56
2024/02/24 10:44:33;;;;;;;1.90;0.83;;;10.10;94.30;;;;;;5073327;28;20922;-56
2024/02/24 10:47:00;;;;;;;4.70;0.90;;;10.20;93.20;;;;;;5073518;28;20449;-56
2024/02/24 10:49:28;;;;;;;1.70;0.77;;;10.30;92.40;;;;;;5073487;28;20480;-56
2024/02/24 10:51:55;;;;;;;1.70;0.90;;;10.50;92.50;;;;;;5073487;28;20551;-56
2024/02/24 10:54:26;;;;;;;1.00;0.60;;;11.10;91.30;;;;;;5072968;28;20954;-56
2024/02/24 10:56:57;;;;;;;1.87;0.80;;;11.70;88.00;;;;;;5072763;28;20796;-56
2024/02/24 10:59:29;;;;;;;4.00;0.80;;;12.40;83.40;;;;;;5073565;28;20426;-56
2024/02/24 11:02:00;;;;;;;3.50;0.87;;;13.10;80.30;;;;;;5073571;28;20464;-56
2024/02/24 11:04:27;;;;;;;2.00;0.80;;;13.70;76.00;;;;;;5073528;28;20429;-56
2024/02/24 11:06:56;;;;;;;1.90;0.90;;;14.00;69.80;;;;;;5073181;28;20445;-57
2024/02/24 11:09:29;;;;;;;4.10;1.03;;;14.10;68.20;;;;;;5073131;28;21032;-56
2024/02/24 11:12:04;;;;;;;0.60;0.50;;;14.10;67.00;;;;;;5073202;28;20539;-56
2024/02/24 11:14:32;;;;;;;0.60;0.50;;;13.90;66.40;;;;;;5073628;28;20423;-56
2024/02/24 11:16:59;;;;;;;1.97;0.60;;;13.40;67.00;;;;;;5073451;28;20448;-56
2024/02/24 11:19:45;;;;;;;0.57;0.50;;;13.20;68.80;;;;;;5073081;28;20927;-56
2024/02/24 11:22:19;;;;;;;2.23;1.03;;;13.10;69.90;;;;;;5072915;28;20483;-56
2024/02/24 11:24:46;;;;;;;1.03;0.80;;;13.20;70.60;;;;;;5072975;28;20815;-56
2024/02/24 11:27:13;;;;;;;0.70;0.40;;;13.40;69.40;;;;;;5073356;28;20440;-56
2024/02/24 11:29:41;;;;;;;0.60;0.50;;;13.40;64.70;;;;;;5073106;28;20483;-56
2024/02/24 11:32:11;;;;;;;1.57;0.70;;;13.10;64.70;;;;;;5072797;28;20986;-56
2024/02/24 11:34:42;;;;;;;0.50;0.50;;;12.80;66.60;;;;;;5072803;28;20993;-56
2024/02/24 11:37:09;;;;;;;1.10;0.53;;;12.60;66.60;;;;;;5073182;28;20437;-56
2024/02/24 11:39:39;;;;;;;1.53;0.80;;;12.30;66.50;;;;;;5073043;28;20437;-56
2024/02/24 11:42:07;;;;;;;1.63;0.60;;;12.60;67.50;;;;;;5073011;28;20523;-56
2024/02/24 11:44:34;;;;;;;2.40;1.03;;;12.60;64.70;;;;;;5073088;28;20440;-56
2024/02/24 11:47:02;;;;;;;4.60;0.77;;;12.40;67.30;;;;;;5072995;28;20527;-56
2024/02/24 11:49:29;;;;;;;1.50;1.00;;;12.10;67.70;;;;;;5072674;28;21010;-56
2024/02/24 11:51:56;;;;;;;2.63;0.67;;;11.80;67.70;;;;;;5072781;28;20463;-56
2024/02/24 11:54:23;;;;;;;1.43;0.40;;;11.70;69.90;;;;;;5072713;28;20835;-56
2024/02/24 11:56:50;;;;;;;0.73;0.57;;;11.60;71.10;;;;;;5072910;28;20440;-56
2024/02/24 11:59:17;;;;;;;2.57;0.53;;;11.40;69.50;;;;;;5072965;28;20437;-56
2024/02/24 12:01:43;;;;;;;1.97;0.70;;;11.30;70.60;;;;;;5072970;28;20466;-56
2024/02/24 12:04:14;;;;;;;2.40;0.70;;;10.90;69.70;;;;;;5073152;28;20520;-56
2024/02/24 12:06:46;;;;;;;1.27;0.50;;;10.50;71.70;;;;;;5073050;28;20425;-56
2024/02/24 12:09:13;;;;;;;0.70;0.50;;;10.40;73.60;;;;;;5075552;28;20559;-56
2024/02/24 12:11:40;;;;;;;1.20;0.57;;;10.30;75.20;;;;;;5077416;28;20466;-56
2024/02/24 12:14:08;;;;;;;1.07;0.70;;;10.20;73.90;;;;;;5076851;28;20444;-56
2024/02/24 12:16:36;;;;;;;1.10;0.90;;;10.10;76.40;;;;;;5076674;28;20949;-56
2024/02/24 12:19:04;;;;;;;3.60;1.07;;;10.00;77.80;;;;;;5076867;28;20444;-56
2024/02/24 12:21:32;;;;;;;2.93;0.97;;;9.90;81.80;;;;;;5076454;28;20496;-56
2024/02/24 12:23:59;;;;;;;5.53;0.73;;;10.00;83.80;;;;;;5076515;28;20449;-56
2024/02/24 12:26:26;;;;;;;3.63;1.17;;;10.10;83.60;;;;;;5076467;28;20450;-56
2024/02/24 12:28:53;;;;;;;2.30;1.10;;;10.30;82.30;;;;;;5077180;28;20455;-56
2024/02/24 12:31:20;;;;;;;1.20;0.80;;;10.60;81.70;;;;;;5076322;28;20498;-56
2024/02/24 12:33:47;;;;;;;2.17;1.03;;;10.80;81.00;;;;;;5076191;28;20440;-56
2024/02/24 12:36:15;;;;;;;6.23;3.07;;;11.00;79.30;;;;;;5076422;28;20447;-56
2024/02/24 12:38:44;;;;;;;4.23;1.47;;;11.10;79.00;;;;;;5076356;28;20451;-56
2024/02/24 12:41:13;;;;;;;3.97;2.30;;;11.20;78.90;;;;;;5076233;28;20457;-56
2024/02/24 12:43:40;;;;;;;3.20;2.10;;;11.10;78.50;;;;;;5076092;28;20447;-56
2024/02/24 12:46:07;;;;;;;1.77;0.80;;;11.20;79.10;;;;;;5075655;28;20451;-56
2024/02/24 12:48:34;;;;;;;2.50;1.07;;;11.30;78.60;;;;;;5075897;28;20536;-56
2024/02/24 12:51:01;;;;;;;9.20;1.90;;;11.40;79.20;;;;;;5075670;28;20488;-57
2024/02/24 12:53:28;;;;;;;1.80;0.60;;;11.40;78.30;;;;;;5075513;28;20460;-57
2024/02/24 12:55:56;;;;;;;2.23;0.57;;;11.40;77.30;;;;;;5075770;28;20441;-57